sensor_id;sensor_type;location;lat;lon;timestamp;pressure;altitude;pressure_sealevel;temperature;humidity
59170;BME280;52474;52.236;5.114;2023-03-24T00:00:21;99765.38;;;10.70;100.00
59170;BME280;52474;52.236;5.114;2023-03-24T00:02:49;99763.72;;;10.69;100.00
59170;BME280;52474;52.236;5.114;2023-03-24T00:05:20;99750.94;;;10.64;100.00
59170;BME280;52474;52.236;5.114;2023-03-24T00:07:47;99726.41;;;10.54;100.00
59170;BME280;52474;52.236;5.114;2023-03-24T00:10:16;99737.75;;;10.72;100.00
59170;BME280;52474;52.236;5.114;2023-03-24T00:12:44;99749.47;;;10.70;100.00
59170;BME280;52474;52.236;5.114;2023-03-24T00:15:15;99693.09;;;10.43;100.00
59170;BME280;52474;52.236;5.114;2023-03-24T00:17:44;99725.47;;;10.63;100.00
59170;BME280;52474;52.236;5.114;2023-03-24T00:20:13;99730.44;;;10.66;100.00
59170;BME280;52474;52.236;5.114;2023-03-24T00:22:47;99711.22;;;10.64;100.00
59170;BME280;52474;52.236;5.114;2023-03-24T00:25:17;99717.69;;;10.70;100.00
59170;BME280;52474;52.236;5.114;2023-03-24T00:27:47;99707.09;;;10.70;100.00
59170;BME280;52474;52.236;5.114;2023-03-24T00:30:17;99707.91;;;10.62;100.00
59170;BME280;52474;52.236;5.114;2023-03-24T00:32:44;99692.50;;;10.58;100.00
59170;BME280;52474;52.236;5.114;2023-03-24T00:35:14;99715.88;;;10.70;100.00
59170;BME280;52474;52.236;5.114;2023-03-24T00:37:41;99675.78;;;10.57;100.00
59170;BME280;52474;52.236;5.114;2023-03-24T00:40:13;99698.34;;;10.69;100.00
59170;BME280;52474;52.236;5.114;2023-03-24T00:42:41;99685.31;;;10.76;100.00
59170;BME280;52474;52.236;5.114;2023-03-24T00:45:15;99684.28;;;10.69;100.00
59170;BME280;52474;52.236;5.114;2023-03-24T00:47:43;99697.56;;;10.85;100.00
59170;BME280;52474;52.236;5.114;2023-03-24T00:50:15;99689.47;;;10.87;100.00
59170;BME280;52474;52.236;5.114;2023-03-24T00:52:42;99689.59;;;10.85;100.00
59170;BME280;52474;52.236;5.114;2023-03-24T00:55:11;99666.44;;;10.79;100.00
59170;BME280;52474;52.236;5.114;2023-03-24T00:57:42;99677.38;;;10.84;100.00
59170;BME280;52474;52.236;5.114;2023-03-24T01:00:16;99647.22;;;10.77;100.00
59170;BME280;52474;52.236;5.114;2023-03-24T01:02:45;99689.19;;;10.98;100.00
59170;BME280;52474;52.236;5.114;2023-03-24T01:05:12;99671.13;;;10.93;100.00
59170;BME280;52474;52.236;5.114;2023-03-24T01:07:43;99661.00;;;10.97;100.00
59170;BME280;52474;52.236;5.114;2023-03-24T01:10:12;99659.84;;;11.00;100.00
59170;BME280;52474;52.236;5.114;2023-03-24T01:12:41;99661.03;;;11.05;100.00
59170;BME280;52474;52.236;5.114;2023-03-24T01:15:12;99655.22;;;11.02;100.00
59170;BME280;52474;52.236;5.114;2023-03-24T01:17:39;99654.41;;;11.01;100.00
59170;BME280;52474;52.236;5.114;2023-03-24T01:20:07;99651.75;;;11.01;100.00
59170;BME280;52474;52.236;5.114;2023-03-24T01:22:35;99644.63;;;11.02;100.00
59170;BME280;52474;52.236;5.114;2023-03-24T01:25:03;99644.47;;;11.03;100.00
59170;BME280;52474;52.236;5.114;2023-03-24T01:27:30;99632.38;;;11.01;100.00
59170;BME280;52474;52.236;5.114;2023-03-24T01:30:00;99639.00;;;11.05;100.00
59170;BME280;52474;52.236;5.114;2023-03-24T01:32:27;99640.00;;;11.04;100.00
59170;BME280;52474;52.236;5.114;2023-03-24T01:34:53;99633.69;;;11.05;100.00
59170;BME280;52474;52.236;5.114;2023-03-24T01:37:19;99632.06;;;11.04;100.00
59170;BME280;52474;52.236;5.114;2023-03-24T01:39:45;99608.03;;;10.89;100.00
59170;BME280;52474;52.236;5.114;2023-03-24T01:42:17;99600.56;;;10.92;100.00
59170;BME280;52474;52.236;5.114;2023-03-24T01:44:48;99624.25;;;11.02;100.00
59170;BME280;52474;52.236;5.114;2023-03-24T01:47:15;99622.28;;;11.04;100.00
59170;BME280;52474;52.236;5.114;2023-03-24T01:49:46;99614.81;;;11.00;100.00
59170;BME280;52474;52.236;5.114;2023-03-24T01:52:19;99603.41;;;11.07;100.00
59170;BME280;52474;52.236;5.114;2023-03-24T01:54:59;99613.34;;;11.05;100.00
59170;BME280;52474;52.236;5.114;2023-03-24T01:57:36;99623.44;;;11.10;100.00
59170;BME280;52474;52.236;5.114;2023-03-24T02:00:11;99625.25;;;11.09;100.00
59170;BME280;52474;52.236;5.114;2023-03-24T02:02:55;99629.25;;;11.05;100.00
59170;BME280;52474;52.236;5.114;2023-03-24T02:05:30;99616.16;;;11.04;100.00
59170;BME280;52474;52.236;5.114;2023-03-24T02:08:17;99637.03;;;11.15;100.00
59170;BME280;52474;52.236;5.114;2023-03-24T02:10:48;99620.63;;;11.20;100.00
59170;BME280;52474;52.236;5.114;2023-03-24T02:13:16;99651.44;;;11.21;100.00
59170;BME280;52474;52.236;5.114;2023-03-24T02:19:06;99645.44;;;10.94;100.00
59170;BME280;52474;52.236;5.114;2023-03-24T02:38:47;99718.50;;;10.28;100.00
59170;BME280;52474;52.236;5.114;2023-03-24T02:44:33;99744.25;;;10.00;100.00
59170;BME280;52474;52.236;5.114;2023-03-24T02:47:19;99734.94;;;9.96;100.00
59170;BME280;52474;52.236;5.114;2023-03-24T02:55:19;99748.34;;;9.76;100.00
59170;BME280;52474;52.236;5.114;2023-03-24T02:57:51;99719.44;;;9.57;100.00
59170;BME280;52474;52.236;5.114;2023-03-24T03:00:51;99753.59;;;9.68;100.00
59170;BME280;52474;52.236;5.114;2023-03-24T03:03:45;99740.44;;;9.58;100.00
59170;BME280;52474;52.236;5.114;2023-03-24T03:06:17;99736.38;;;9.46;100.00
59170;BME280;52474;52.236;5.114;2023-03-24T03:08:47;99775.56;;;9.51;100.00
59170;BME280;52474;52.236;5.114;2023-03-24T03:11:14;99784.84;;;9.55;100.00
59170;BME280;52474;52.236;5.114;2023-03-24T03:19:22;99784.75;;;9.29;100.00
59170;BME280;52474;52.236;5.114;2023-03-24T03:21:48;99786.00;;;9.24;100.00
59170;BME280;52474;52.236;5.114;2023-03-24T03:24:22;99772.91;;;9.05;100.00
59170;BME280;52474;52.236;5.114;2023-03-24T03:27:06;99788.75;;;9.05;100.00
59170;BME280;52474;52.236;5.114;2023-03-24T03:29:38;99801.44;;;9.01;100.00
59170;BME280;52474;52.236;5.114;2023-03-24T03:32:09;99801.88;;;8.97;100.00
59170;BME280;52474;52.236;5.114;2023-03-24T03:34:42;99802.41;;;9.00;100.00
59170;BME280;52474;52.236;5.114;2023-03-24T03:37:57;99812.53;;;9.05;100.00
59170;BME280;52474;52.236;5.114;2023-03-24T03:40:07;99806.13;;;9.08;100.00
59170;BME280;52474;52.236;5.114;2023-03-24T03:42:47;99804.22;;;9.00;100.00
59170;BME280;52474;52.236;5.114;2023-03-24T03:45:13;99811.44;;;8.98;100.00
59170;BME280;52474;52.236;5.114;2023-03-24T03:47:40;99810.88;;;9.04;100.00
59170;BME280;52474;52.236;5.114;2023-03-24T03:50:07;99825.34;;;9.00;100.00
59170;BME280;52474;52.236;5.114;2023-03-24T03:52:35;99832.75;;;8.96;100.00
59170;BME280;52474;52.236;5.114;2023-03-24T03:55:06;99832.19;;;8.93;100.00
59170;BME280;52474;52.236;5.114;2023-03-24T03:57:34;99837.59;;;9.01;100.00
59170;BME280;52474;52.236;5.114;2023-03-24T04:00:19;99847.03;;;9.03;100.00
59170;BME280;52474;52.236;5.114;2023-03-24T04:09:31;99854.84;;;8.86;100.00
59170;BME280;52474;52.236;5.114;2023-03-24T04:18:48;99847.59;;;8.60;100.00
59170;BME280;52474;52.236;5.114;2023-03-24T04:27:24;99880.75;;;8.72;100.00
59170;BME280;52474;52.236;5.114;2023-03-24T04:29:53;99890.47;;;8.81;100.00
59170;BME280;52474;52.236;5.114;2023-03-24T04:35:24;99897.09;;;8.86;100.00
59170;BME280;52474;52.236;5.114;2023-03-24T04:38:13;99888.53;;;8.84;100.00
59170;BME280;52474;52.236;5.114;2023-03-24T04:40:45;99899.22;;;8.82;100.00
59170;BME280;52474;52.236;5.114;2023-03-24T04:43:17;99901.72;;;8.84;100.00
59170;BME280;52474;52.236;5.114;2023-03-24T04:45:44;99902.53;;;8.84;100.00
59170;BME280;52474;52.236;5.114;2023-03-24T04:48:34;99895.91;;;8.70;100.00
59170;BME280;52474;52.236;5.114;2023-03-24T04:51:10;99914.06;;;8.83;100.00
59170;BME280;52474;52.236;5.114;2023-03-24T04:53:59;99927.44;;;8.81;100.00
59170;BME280;52474;52.236;5.114;2023-03-24T04:59:20;99929.09;;;8.82;100.00
59170;BME280;52474;52.236;5.114;2023-03-24T05:01:47;99929.22;;;8.81;100.00
59170;BME280;52474;52.236;5.114;2023-03-24T05:04:28;99932.31;;;8.76;100.00
59170;BME280;52474;52.236;5.114;2023-03-24T05:07:02;99924.53;;;8.65;100.00
59170;BME280;52474;52.236;5.114;2023-03-24T05:09:29;99934.78;;;8.68;100.00
59170;BME280;52474;52.236;5.114;2023-03-24T05:11:59;99944.41;;;8.59;100.00
59170;BME280;52474;52.236;5.114;2023-03-24T05:14:24;99948.69;;;8.60;100.00
59170;BME280;52474;52.236;5.114;2023-03-24T05:16:51;99953.44;;;8.57;100.00
59170;BME280;52474;52.236;5.114;2023-03-24T05:19:19;99944.81;;;8.55;100.00
59170;BME280;52474;52.236;5.114;2023-03-24T05:21:45;99943.59;;;8.49;100.00
59170;BME280;52474;52.236;5.114;2023-03-24T05:24:12;99958.44;;;8.41;100.00
59170;BME280;52474;52.236;5.114;2023-03-24T05:26:38;99962.06;;;8.40;100.00
59170;BME280;52474;52.236;5.114;2023-03-24T05:29:15;99933.69;;;8.22;100.00
59170;BME280;52474;52.236;5.114;2023-03-24T05:31:40;99955.22;;;8.27;100.00
59170;BME280;52474;52.236;5.114;2023-03-24T05:34:13;99968.53;;;8.26;100.00
59170;BME280;52474;52.236;5.114;2023-03-24T05:37:07;99968.09;;;8.21;100.00
59170;BME280;52474;52.236;5.114;2023-03-24T05:39:36;99969.09;;;8.20;100.00
59170;BME280;52474;52.236;5.114;2023-03-24T05:42:09;99971.28;;;8.24;100.00
59170;BME280;52474;52.236;5.114;2023-03-24T05:44:35;99981.44;;;8.29;100.00
59170;BME280;52474;52.236;5.114;2023-03-24T05:47:08;99973.53;;;8.29;100.00
59170;BME280;52474;52.236;5.114;2023-03-24T05:49:34;99993.16;;;8.46;100.00
59170;BME280;52474;52.236;5.114;2023-03-24T05:52:01;99989.97;;;8.52;100.00
59170;BME280;52474;52.236;5.114;2023-03-24T05:54:28;99991.63;;;8.53;100.00
59170;BME280;52474;52.236;5.114;2023-03-24T05:57:04;99993.03;;;8.57;100.00
59170;BME280;52474;52.236;5.114;2023-03-24T05:59:41;99981.19;;;8.71;100.00
59170;BME280;52474;52.236;5.114;2023-03-24T06:02:17;99993.69;;;8.78;100.00
59170;BME280;52474;52.236;5.114;2023-03-24T06:04:54;99988.69;;;8.75;100.00
59170;BME280;52474;52.236;5.114;2023-03-24T06:07:25;99998.97;;;8.78;100.00
59170;BME280;52474;52.236;5.114;2023-03-24T06:09:52;100004.41;;;8.87;100.00
59170;BME280;52474;52.236;5.114;2023-03-24T06:12:25;99999.66;;;8.90;100.00
59170;BME280;52474;52.236;5.114;2023-03-24T06:14:58;100002.88;;;8.94;100.00
59170;BME280;52474;52.236;5.114;2023-03-24T06:17:29;99995.38;;;8.89;100.00
59170;BME280;52474;52.236;5.114;2023-03-24T06:20:08;100007.28;;;9.03;100.00
59170;BME280;52474;52.236;5.114;2023-03-24T06:22:53;100023.69;;;9.07;100.00
59170;BME280;52474;52.236;5.114;2023-03-24T06:25:28;99991.19;;;8.96;100.00
59170;BME280;52474;52.236;5.114;2023-03-24T06:28:10;100010.91;;;9.12;100.00
59170;BME280;52474;52.236;5.114;2023-03-24T06:30:37;100016.88;;;9.14;100.00
59170;BME280;52474;52.236;5.114;2023-03-24T06:33:05;100014.94;;;9.16;100.00
59170;BME280;52474;52.236;5.114;2023-03-24T06:35:31;100013.94;;;9.17;100.00
59170;BME280;52474;52.236;5.114;2023-03-24T06:38:10;100012.94;;;9.18;100.00
59170;BME280;52474;52.236;5.114;2023-03-24T06:40:36;100013.22;;;9.24;100.00
59170;BME280;52474;52.236;5.114;2023-03-24T06:43:02;100031.16;;;9.31;100.00
59170;BME280;52474;52.236;5.114;2023-03-24T06:45:29;100033.66;;;9.32;100.00
59170;BME280;52474;52.236;5.114;2023-03-24T06:47:55;100036.28;;;9.32;100.00
59170;BME280;52474;52.236;5.114;2023-03-24T06:50:22;100042.97;;;9.36;100.00
59170;BME280;52474;52.236;5.114;2023-03-24T06:52:52;100046.13;;;9.40;100.00
59170;BME280;52474;52.236;5.114;2023-03-24T06:55:20;100047.53;;;9.44;100.00
59170;BME280;52474;52.236;5.114;2023-03-24T06:57:47;100050.03;;;9.45;100.00
59170;BME280;52474;52.236;5.114;2023-03-24T07:00:30;100051.81;;;9.45;100.00
59170;BME280;52474;52.236;5.114;2023-03-24T07:03:26;100057.09;;;9.45;100.00
59170;BME280;52474;52.236;5.114;2023-03-24T07:06:15;100058.50;;;9.49;100.00
59170;BME280;52474;52.236;5.114;2023-03-24T07:08:41;100062.75;;;9.70;100.00
59170;BME280;52474;52.236;5.114;2023-03-24T07:11:08;100058.75;;;9.93;100.00
59170;BME280;52474;52.236;5.114;2023-03-24T07:13:36;100054.31;;;9.94;100.00
59170;BME280;52474;52.236;5.114;2023-03-24T07:16:04;100057.28;;;10.08;100.00
59170;BME280;52474;52.236;5.114;2023-03-24T07:18:32;100053.38;;;10.13;100.00
59170;BME280;52474;52.236;5.114;2023-03-24T07:21:04;100049.84;;;9.94;100.00
59170;BME280;52474;52.236;5.114;2023-03-24T07:23:31;100076.94;;;10.06;100.00
59170;BME280;52474;52.236;5.114;2023-03-24T07:26:15;100043.00;;;10.01;100.00
59170;BME280;52474;52.236;5.114;2023-03-24T07:28:47;100057.09;;;10.20;100.00
59170;BME280;52474;52.236;5.114;2023-03-24T07:31:46;100079.56;;;10.43;100.00
59170;BME280;52474;52.236;5.114;2023-03-24T07:34:14;100078.03;;;10.41;100.00
59170;BME280;52474;52.236;5.114;2023-03-24T07:36:40;100087.88;;;10.21;100.00
59170;BME280;52474;52.236;5.114;2023-03-24T07:39:15;100091.69;;;10.64;100.00
59170;BME280;52474;52.236;5.114;2023-03-24T07:41:41;100095.41;;;10.71;100.00
59170;BME280;52474;52.236;5.114;2023-03-24T07:44:17;100101.78;;;10.96;100.00
59170;BME280;52474;52.236;5.114;2023-03-24T07:46:48;100086.16;;;10.75;100.00
59170;BME280;52474;52.236;5.114;2023-03-24T07:49:14;100097.06;;;10.72;100.00
59170;BME280;52474;52.236;5.114;2023-03-24T07:51:40;100092.66;;;10.45;100.00
59170;BME280;52474;52.236;5.114;2023-03-24T07:54:22;100097.50;;;10.49;100.00
59170;BME280;52474;52.236;5.114;2023-03-24T07:56:48;100100.72;;;10.43;100.00
59170;BME280;52474;52.236;5.114;2023-03-24T07:59:14;100057.41;;;10.17;100.00
59170;BME280;52474;52.236;5.114;2023-03-24T08:02:03;100113.81;;;10.45;100.00
59170;BME280;52474;52.236;5.114;2023-03-24T08:04:38;100116.69;;;10.79;100.00
59170;BME280;52474;52.236;5.114;2023-03-24T08:07:26;100124.81;;;10.68;100.00
59170;BME280;52474;52.236;5.114;2023-03-24T08:09:51;100133.97;;;10.56;100.00
59170;BME280;52474;52.236;5.114;2023-03-24T08:12:17;100123.50;;;10.36;100.00
59170;BME280;52474;52.236;5.114;2023-03-24T08:14:43;100125.06;;;10.29;100.00
59170;BME280;52474;52.236;5.114;2023-03-24T08:17:09;100132.31;;;10.55;100.00
59170;BME280;52474;52.236;5.114;2023-03-24T08:19:36;100128.47;;;10.67;100.00
59170;BME280;52474;52.236;5.114;2023-03-24T08:22:01;100107.34;;;10.57;100.00
59170;BME280;52474;52.236;5.114;2023-03-24T08:24:27;100127.44;;;10.50;100.00
59170;BME280;52474;52.236;5.114;2023-03-24T08:26:53;100122.66;;;10.99;100.00
59170;BME280;52474;52.236;5.114;2023-03-24T08:29:23;100135.84;;;10.45;100.00
59170;BME280;52474;52.236;5.114;2023-03-24T08:31:49;100127.28;;;10.79;100.00
59170;BME280;52474;52.236;5.114;2023-03-24T08:34:15;100142.47;;;11.49;100.00
59170;BME280;52474;52.236;5.114;2023-03-24T08:36:41;100126.22;;;15.29;100.00
59170;BME280;52474;52.236;5.114;2023-03-24T08:39:06;100121.63;;;15.37;100.00
59170;BME280;52474;52.236;5.114;2023-03-24T08:41:34;100116.41;;;19.61;100.00
59170;BME280;52474;52.236;5.114;2023-03-24T08:44:03;100124.06;;;18.98;100.00
59170;BME280;52474;52.236;5.114;2023-03-24T08:46:30;100125.28;;;18.88;100.00
59170;BME280;52474;52.236;5.114;2023-03-24T08:48:58;100091.53;;;13.07;100.00
59170;BME280;52474;52.236;5.114;2023-03-24T08:51:24;100130.09;;;13.60;100.00
59170;BME280;52474;52.236;5.114;2023-03-24T08:53:51;100149.31;;;13.95;100.00
59170;BME280;52474;52.236;5.114;2023-03-24T08:56:19;100132.97;;;19.65;100.00
59170;BME280;52474;52.236;5.114;2023-03-24T08:58:45;100128.25;;;21.22;100.00
59170;BME280;52474;52.236;5.114;2023-03-24T09:01:13;100124.22;;;21.63;100.00
59170;BME280;52474;52.236;5.114;2023-03-24T09:03:40;100150.00;;;21.52;100.00
59170;BME280;52474;52.236;5.114;2023-03-24T09:06:06;100148.69;;;19.75;100.00
59170;BME280;52474;52.236;5.114;2023-03-24T09:08:32;100147.19;;;16.88;100.00
59170;BME280;52474;52.236;5.114;2023-03-24T09:10:58;100151.50;;;20.13;100.00
59170;BME280;52474;52.236;5.114;2023-03-24T09:13:24;100155.88;;;18.59;100.00
59170;BME280;52474;52.236;5.114;2023-03-24T09:15:52;100165.31;;;18.07;100.00
59170;BME280;52474;52.236;5.114;2023-03-24T09:18:20;100177.97;;;13.85;100.00
59170;BME280;52474;52.236;5.114;2023-03-24T09:20:48;100158.28;;;14.10;100.00
59170;BME280;52474;52.236;5.114;2023-03-24T09:23:14;100166.47;;;12.17;100.00
59170;BME280;52474;52.236;5.114;2023-03-24T09:25:40;100169.88;;;15.74;100.00
59170;BME280;52474;52.236;5.114;2023-03-24T09:28:07;100169.09;;;12.94;100.00
59170;BME280;52474;52.236;5.114;2023-03-24T09:30:33;100168.63;;;13.23;100.00
59170;BME280;52474;52.236;5.114;2023-03-24T09:32:59;100161.50;;;15.31;100.00
59170;BME280;52474;52.236;5.114;2023-03-24T09:35:26;100178.97;;;13.92;100.00
59170;BME280;52474;52.236;5.114;2023-03-24T09:37:53;100170.50;;;16.94;100.00
59170;BME280;52474;52.236;5.114;2023-03-24T09:40:34;100180.41;;;14.03;100.00
59170;BME280;52474;52.236;5.114;2023-03-24T09:45:57;100188.13;;;12.31;100.00
59170;BME280;52474;52.236;5.114;2023-03-24T09:48:34;100171.22;;;17.74;100.00
59170;BME280;52474;52.236;5.114;2023-03-24T09:51:06;100167.63;;;22.23;100.00
59170;BME280;52474;52.236;5.114;2023-03-24T09:53:39;100168.13;;;19.70;100.00
59170;BME280;52474;52.236;5.114;2023-03-24T09:56:17;100189.50;;;15.35;100.00
59170;BME280;52474;52.236;5.114;2023-03-24T09:58:47;100187.47;;;13.63;100.00
59170;BME280;52474;52.236;5.114;2023-03-24T10:01:23;100185.97;;;13.36;100.00
59170;BME280;52474;52.236;5.114;2023-03-24T10:03:49;100192.97;;;13.45;100.00
59170;BME280;52474;52.236;5.114;2023-03-24T10:06:19;100197.75;;;14.94;100.00
59170;BME280;52474;52.236;5.114;2023-03-24T10:09:42;100195.06;;;16.09;100.00
59170;BME280;52474;52.236;5.114;2023-03-24T10:17:03;100191.84;;;20.13;100.00
59170;BME280;52474;52.236;5.114;2023-03-24T10:19:55;100199.13;;;17.80;100.00
59170;BME280;52474;52.236;5.114;2023-03-24T10:30:20;100188.81;;;21.95;100.00
59170;BME280;52474;52.236;5.114;2023-03-24T10:32:47;100193.41;;;20.47;100.00
59170;BME280;52474;52.236;5.114;2023-03-24T10:35:17;100186.94;;;25.52;100.00
59170;BME280;52474;52.236;5.114;2023-03-24T10:37:44;100173.16;;;23.26;100.00
59170;BME280;52474;52.236;5.114;2023-03-24T10:40:17;100190.22;;;23.38;100.00
59170;BME280;52474;52.236;5.114;2023-03-24T10:42:44;100186.66;;;26.21;100.00
59170;BME280;52474;52.236;5.114;2023-03-24T10:45:13;100198.28;;;22.47;100.00
59170;BME280;52474;52.236;5.114;2023-03-24T10:47:40;100191.16;;;26.32;100.00
59170;BME280;52474;52.236;5.114;2023-03-24T10:50:08;100185.38;;;21.31;100.00
59170;BME280;52474;52.236;5.114;2023-03-24T10:52:42;100168.25;;;24.00;100.00
59170;BME280;52474;52.236;5.114;2023-03-24T10:55:17;100196.69;;;22.21;100.00
59170;BME280;52474;52.236;5.114;2023-03-24T10:57:45;100177.31;;;24.70;100.00
59170;BME280;52474;52.236;5.114;2023-03-24T11:00:22;100179.75;;;24.07;98.56
59170;BME280;52474;52.236;5.114;2023-03-24T11:03:04;100207.63;;;22.63;100.00
59170;BME280;52474;52.236;5.114;2023-03-24T11:05:33;100185.06;;;23.36;100.00
59170;BME280;52474;52.236;5.114;2023-03-24T11:10:42;100184.44;;;22.74;100.00
59170;BME280;52474;52.236;5.114;2023-03-24T11:13:25;100181.56;;;20.75;100.00
59170;BME280;52474;52.236;5.114;2023-03-24T11:15:56;100167.25;;;20.09;100.00
59170;BME280;52474;52.236;5.114;2023-03-24T11:18:31;100184.81;;;19.32;100.00
59170;BME280;52474;52.236;5.114;2023-03-24T11:21:06;100174.78;;;20.59;100.00
59170;BME280;52474;52.236;5.114;2023-03-24T11:23:38;100189.63;;;19.70;100.00
59170;BME280;52474;52.236;5.114;2023-03-24T11:26:18;100210.50;;;15.61;100.00
59170;BME280;52474;52.236;5.114;2023-03-24T11:28:51;100200.22;;;18.20;100.00
59170;BME280;52474;52.236;5.114;2023-03-24T11:31:23;100203.41;;;19.40;100.00
59170;BME280;52474;52.236;5.114;2023-03-24T11:34:05;100206.72;;;17.33;100.00
59170;BME280;52474;52.236;5.114;2023-03-24T11:36:51;100194.25;;;19.08;100.00
59170;BME280;52474;52.236;5.114;2023-03-24T11:39:20;100200.59;;;17.18;100.00
59170;BME280;52474;52.236;5.114;2023-03-24T11:42:14;100205.50;;;15.58;100.00
59170;BME280;52474;52.236;5.114;2023-03-24T11:44:45;100194.44;;;20.46;100.00
59170;BME280;52474;52.236;5.114;2023-03-24T11:47:17;100175.78;;;18.02;100.00
59170;BME280;52474;52.236;5.114;2023-03-24T11:49:57;100208.19;;;17.57;100.00
59170;BME280;52474;52.236;5.114;2023-03-24T11:52:35;100201.41;;;17.19;100.00
59170;BME280;52474;52.236;5.114;2023-03-24T11:55:13;100207.78;;;14.52;100.00
59170;BME280;52474;52.236;5.114;2023-03-24T12:00:42;100201.13;;;20.10;100.00
59170;BME280;52474;52.236;5.114;2023-03-24T12:03:49;100213.13;;;23.24;100.00
59170;BME280;52474;52.236;5.114;2023-03-24T12:06:38;100192.34;;;22.39;100.00
59170;BME280;52474;52.236;5.114;2023-03-24T12:10:20;100204.88;;;23.61;100.00
59170;BME280;52474;52.236;5.114;2023-03-24T12:12:54;100204.47;;;21.86;100.00
59170;BME280;52474;52.236;5.114;2023-03-24T12:15:36;100196.19;;;20.14;100.00
59170;BME280;52474;52.236;5.114;2023-03-24T12:18:09;100201.31;;;25.35;100.00
59170;BME280;52474;52.236;5.114;2023-03-24T12:23:59;100192.69;;;23.93;100.00
59170;BME280;52474;52.236;5.114;2023-03-24T12:26:31;100197.25;;;22.97;100.00
59170;BME280;52474;52.236;5.114;2023-03-24T12:34:32;100199.28;;;23.02;100.00
59170;BME280;52474;52.236;5.114;2023-03-24T12:42:45;100185.97;;;20.56;100.00
59170;BME280;52474;52.236;5.114;2023-03-24T12:45:32;100188.44;;;18.50;100.00
59170;BME280;52474;52.236;5.114;2023-03-24T12:57:30;100187.34;;;14.84;100.00
59170;BME280;52474;52.236;5.114;2023-03-24T12:59:50;100185.16;;;17.42;100.00
59170;BME280;52474;52.236;5.114;2023-03-24T13:02:42;100175.47;;;17.19;100.00
59170;BME280;52474;52.236;5.114;2023-03-24T13:05:16;100169.94;;;15.65;100.00
59170;BME280;52474;52.236;5.114;2023-03-24T13:07:44;100169.41;;;17.10;100.00
59170;BME280;52474;52.236;5.114;2023-03-24T13:10:16;100187.66;;;15.81;100.00
59170;BME280;52474;52.236;5.114;2023-03-24T13:12:51;100178.75;;;16.04;100.00
59170;BME280;52474;52.236;5.114;2023-03-24T13:15:45;100172.84;;;15.56;100.00
59170;BME280;52474;52.236;5.114;2023-03-24T13:18:36;100177.28;;;14.63;100.00
59170;BME280;52474;52.236;5.114;2023-03-24T13:23:51;100174.53;;;14.79;100.00
59170;BME280;52474;52.236;5.114;2023-03-24T13:29:43;100171.75;;;14.96;100.00
59170;BME280;52474;52.236;5.114;2023-03-24T13:32:32;100167.59;;;14.14;100.00
59170;BME280;52474;52.236;5.114;2023-03-24T13:35:12;100168.22;;;14.25;100.00
59170;BME280;52474;52.236;5.114;2023-03-24T13:37:47;100165.25;;;14.20;100.00
59170;BME280;52474;52.236;5.114;2023-03-24T13:40:25;100165.53;;;13.69;100.00
59170;BME280;52474;52.236;5.114;2023-03-24T13:42:54;100168.75;;;14.99;100.00
59170;BME280;52474;52.236;5.114;2023-03-24T13:45:47;100172.59;;;16.18;100.00
59170;BME280;52474;52.236;5.114;2023-03-24T13:48:30;100154.44;;;15.99;100.00
59170;BME280;52474;52.236;5.114;2023-03-24T13:50:59;100162.81;;;15.96;100.00
59170;BME280;52474;52.236;5.114;2023-03-24T13:55:59;100157.16;;;14.44;100.00
59170;BME280;52474;52.236;5.114;2023-03-24T13:58:44;100150.72;;;13.50;100.00
59170;BME280;52474;52.236;5.114;2023-03-24T14:04:26;100167.41;;;14.24;100.00
59170;BME280;52474;52.236;5.114;2023-03-24T14:09:28;100169.00;;;13.69;100.00
59170;BME280;52474;52.236;5.114;2023-03-24T14:14:22;100181.50;;;13.69;100.00
59170;BME280;52474;52.236;5.114;2023-03-24T14:22:24;100160.19;;;13.28;100.00
59170;BME280;52474;52.236;5.114;2023-03-24T14:25:19;100165.16;;;13.23;100.00
59170;BME280;52474;52.236;5.114;2023-03-24T14:27:48;100168.03;;;14.82;100.00
59170;BME280;52474;52.236;5.114;2023-03-24T14:30:22;100150.81;;;14.06;100.00
59170;BME280;52474;52.236;5.114;2023-03-24T14:32:54;100172.25;;;14.21;100.00
59170;BME280;52474;52.236;5.114;2023-03-24T14:35:43;100160.69;;;13.48;100.00
59170;BME280;52474;52.236;5.114;2023-03-24T14:40:51;100161.53;;;13.40;100.00
59170;BME280;52474;52.236;5.114;2023-03-24T14:43:55;100147.22;;;13.33;100.00
59170;BME280;52474;52.236;5.114;2023-03-24T14:48:57;100126.88;;;14.37;100.00
59170;BME280;52474;52.236;5.114;2023-03-24T14:51:42;100137.66;;;14.04;100.00
59170;BME280;52474;52.236;5.114;2023-03-24T14:54:36;100150.66;;;14.55;100.00
59170;BME280;52474;52.236;5.114;2023-03-24T14:57:05;100131.72;;;13.78;100.00
59170;BME280;52474;52.236;5.114;2023-03-24T14:59:46;100144.56;;;13.74;100.00
59170;BME280;52474;52.236;5.114;2023-03-24T15:02:28;100139.91;;;13.76;100.00
59170;BME280;52474;52.236;5.114;2023-03-24T15:07:51;100152.22;;;13.61;100.00
59170;BME280;52474;52.236;5.114;2023-03-24T15:10:23;100134.25;;;13.38;100.00
59170;BME280;52474;52.236;5.114;2023-03-24T15:12:52;100134.91;;;13.81;100.00
59170;BME280;52474;52.236;5.114;2023-03-24T15:15:22;100122.84;;;14.49;100.00
59170;BME280;52474;52.236;5.114;2023-03-24T15:17:48;100146.59;;;14.28;100.00
59170;BME280;52474;52.236;5.114;2023-03-24T15:20:25;100134.56;;;14.40;100.00
59170;BME280;52474;52.236;5.114;2023-03-24T15:22:51;100117.78;;;13.67;100.00
59170;BME280;52474;52.236;5.114;2023-03-24T15:25:26;100130.28;;;13.59;100.00
59170;BME280;52474;52.236;5.114;2023-03-24T15:27:54;100115.13;;;13.51;100.00
59170;BME280;52474;52.236;5.114;2023-03-24T15:30:20;100117.28;;;13.23;100.00
59170;BME280;52474;52.236;5.114;2023-03-24T15:32:46;100124.31;;;13.32;100.00